Murdock, Minnesota
Current Conditions -  °F | °C
As of 6:15 AM on Saturday 20 Dec 2014 (Local Time) from KBDH Reporting Station
Haze Haze  
Wind Chill: -3°   Ceiling: 1000
Heat Index:   Visibility: 5mi
Dew Point: -2°   Wind: 5mph
Humidity: 87%   Direction: 190°S
Pressure: 30.1"   Gusts: NA
Location:  45.22°N, 95.39°W
Report Text: KBDH 201215Z AUTO 19004KT 5SM BR OVC010 00/M02 A3010 RMK AO2
Loading
Personal Weather Stations






























Interactive Weather Map New forecast layout! Learn more

10-Day Weather Forecast

Advertisements
Track Severe Weather on mobile